Time;durP1;ratioP1;P1;durP2;ratioP2;P2;SDS_P1;SDS_P2;PMS_P1;PMS_P2;Temp;Humidity;BMP_temperature;BMP_pressure;BME280_temperature;BME280_humidity;BME280_pressure;Samples;Min_cycle;Max_cycle;Signal;HPM_P1;HPM_P2
2023/04/17 00:01:54;;;;;;;43.33;11.77;;;12.20;93.20;;;;;;5063944;28;20016;-59
2023/04/17 00:04:20;;;;;;;41.33;11.55;;;12.20;93.20;;;;;;5065228;28;20025;-59
2023/04/17 00:06:46;;;;;;;35.80;11.13;;;12.10;93.20;;;;;;5080638;28;20033;-59
2023/04/17 00:09:11;;;;;;;41.50;11.05;;;12.10;93.20;;;;;;5065293;28;20119;-59
2023/04/17 00:11:37;;;;;;;37.33;11.65;;;12.10;93.20;;;;;;5063704;28;20067;-59
2023/04/17 00:14:03;;;;;;;37.30;10.90;;;12.10;93.20;;;;;;5063803;28;20040;-59
2023/04/17 00:16:29;;;;;;;45.13;11.77;;;12.10;93.20;;;;;;5063558;28;20040;-58
2023/04/17 00:18:54;;;;;;;37.53;11.38;;;12.10;93.20;;;;;;5065246;28;20055;-58
2023/04/17 00:21:20;;;;;;;45.70;11.40;;;12.10;93.20;;;;;;5063673;28;20024;-59
2023/04/17 00:23:46;;;;;;;44.83;11.40;;;12.10;93.20;;;;;;5063702;28;20041;-59
2023/04/17 00:26:11;;;;;;;38.92;11.40;;;12.10;93.20;;;;;;5080440;28;20370;-59
2023/04/17 00:28:37;;;;;;;44.88;11.40;;;12.00;93.20;;;;;;5065097;28;20025;-59
2023/04/17 00:31:03;;;;;;;32.70;10.20;;;12.00;93.20;;;;;;5063527;28;20102;-59
2023/04/17 00:33:30;;;;;;;35.63;10.63;;;12.00;93.20;;;;;;5064933;28;20043;-59
2023/04/17 00:35:55;;;;;;;35.83;10.60;;;12.00;93.20;;;;;;5063412;28;20033;-59
2023/04/17 00:38:21;;;;;;;38.00;10.25;;;12.00;93.20;;;;;;5064954;28;20082;-59
2023/04/17 00:40:47;;;;;;;34.70;11.20;;;12.00;93.20;;;;;;5080286;28;20029;-59
2023/04/17 00:43:13;;;;;;;34.72;10.18;;;12.00;93.20;;;;;;5063322;28;20029;-59
2023/04/17 00:45:38;;;;;;;33.20;9.65;;;12.00;93.20;;;;;;5063360;28;20112;-59
2023/04/17 00:48:05;;;;;;;33.55;10.05;;;12.00;93.20;;;;;;5063212;28;20466;-59
2023/04/17 00:50:31;;;;;;;35.13;10.10;;;12.00;93.20;;;;;;5064481;28;20175;-58
2023/04/17 00:52:57;;;;;;;31.95;10.02;;;12.00;93.30;;;;;;5063288;28;20132;-59
2023/04/17 00:55:22;;;;;;;38.97;10.93;;;12.00;93.30;;;;;;5080184;28;20049;-59
2023/04/17 00:57:48;;;;;;;29.83;9.93;;;12.00;93.50;;;;;;5064625;28;20116;-59
2023/04/17 01:00:15;;;;;;;36.45;9.90;;;11.90;93.20;;;;;;5063233;28;20025;-59
2023/04/17 01:02:41;;;;;;;29.20;8.90;;;11.90;93.30;;;;;;5063132;28;20115;-59
2023/04/17 01:05:07;;;;;;;34.58;11.27;;;11.90;93.30;;;;;;5063290;28;20045;-58
2023/04/17 01:07:32;;;;;;;26.23;9.57;;;11.90;93.20;;;;;;5063154;28;20037;-59
2023/04/17 01:09:58;;;;;;;30.63;9.15;;;11.90;93.30;;;;;;5046611;28;20063;-59
2023/04/17 01:12:24;;;;;;;33.47;10.07;;;11.90;93.30;;;;;;5064331;28;20033;-59
2023/04/17 01:14:53;;;;;;;28.70;9.63;;;11.90;93.30;;;;;;5079886;28;20033;-59
2023/04/17 01:17:19;;;;;;;23.02;8.80;;;11.90;93.30;;;;;;5063065;28;20051;-59
2023/04/17 01:19:45;;;;;;;29.58;8.73;;;11.90;93.30;;;;;;5063076;28;20052;-58
2023/04/17 01:22:11;;;;;;;33.17;10.27;;;11.90;93.30;;;;;;5063060;28;20025;-59
2023/04/17 01:24:36;;;;;;;25.92;9.02;;;11.90;93.30;;;;;;5063157;28;20029;-59
2023/04/17 01:27:03;;;;;;;34.83;9.43;;;11.80;93.30;;;;;;5062913;28;20017;-59
2023/04/17 01:29:28;;;;;;;21.85;8.88;;;11.80;93.30;;;;;;5065852;28;20101;-58
2023/04/17 01:31:54;;;;;;;25.27;8.55;;;11.80;93.30;;;;;;5066882;28;20090;-59
2023/04/17 01:34:19;;;;;;;27.30;9.45;;;11.80;93.60;;;;;;5067072;28;20043;-59
2023/04/17 01:36:45;;;;;;;25.17;9.80;;;11.80;93.50;;;;;;5067915;28;20036;-58
2023/04/17 01:39:11;;;;;;;30.52;8.48;;;11.80;93.30;;;;;;5068218;28;20021;-59
2023/04/17 01:41:36;;;;;;;28.90;9.77;;;11.80;93.30;;;;;;5066478;28;20025;-59
2023/04/17 01:44:02;;;;;;;21.40;8.32;;;11.80;93.30;;;;;;5066685;28;20117;-59
2023/04/17 01:46:27;;;;;;;20.10;8.73;;;11.80;93.30;;;;;;5067908;28;20120;-58
2023/04/17 01:48:53;;;;;;;21.77;8.93;;;11.80;93.30;;;;;;5066544;28;20087;-59
2023/04/17 01:51:18;;;;;;;24.25;9.02;;;11.80;93.30;;;;;;5066368;28;20052;-59
2023/04/17 01:53:44;;;;;;;24.13;8.68;;;11.80;93.50;;;;;;5066065;28;20127;-59
2023/04/17 01:56:11;;;;;;;25.35;8.60;;;11.80;93.30;;;;;;5067827;28;20041;-58
2023/04/17 01:58:37;;;;;;;27.13;9.45;;;11.80;93.30;;;;;;5066364;28;20092;-59
2023/04/17 02:01:03;;;;;;;24.40;8.57;;;11.80;93.30;;;;;;5067709;28;20032;-59
2023/04/17 02:03:30;;;;;;;22.73;8.57;;;11.70;93.20;;;;;;5067720;28;20033;-59
2023/04/17 02:05:55;;;;;;;23.27;9.13;;;11.70;93.30;;;;;;5049687;28;20094;-59
2023/04/17 02:08:21;;;;;;;19.48;8.02;;;11.70;93.40;;;;;;5066063;28;20481;-59
2023/04/17 02:10:46;;;;;;;25.10;8.43;;;11.70;93.40;;;;;;5067623;28;20053;-58
2023/04/17 02:13:12;;;;;;;24.73;9.07;;;11.70;93.40;;;;;;5066240;28;20060;-59
2023/04/17 02:15:37;;;;;;;25.60;8.90;;;11.70;93.40;;;;;;5067319;28;20116;-58
2023/04/17 02:18:04;;;;;;;21.60;8.95;;;11.70;93.40;;;;;;5066023;28;20029;-59
2023/04/17 02:20:31;;;;;;;20.83;7.78;;;11.70;93.40;;;;;;5067345;28;20044;-59
2023/04/17 02:22:57;;;;;;;24.88;8.30;;;11.70;93.40;;;;;;5065836;28;20076;-59
2023/04/17 02:25:23;;;;;;;22.52;8.73;;;11.70;93.40;;;;;;5065981;28;20123;-59
2023/04/17 02:27:48;;;;;;;27.95;8.70;;;11.70;93.40;;;;;;5049101;28;20120;-59
2023/04/17 02:30:14;;;;;;;19.25;8.25;;;11.70;93.40;;;;;;5067075;28;20037;-59
2023/04/17 02:32:39;;;;;;;21.02;7.88;;;11.70;93.40;;;;;;5065600;28;20047;-58
2023/04/17 02:35:05;;;;;;;22.05;7.72;;;11.60;93.40;;;;;;5065632;28;20060;-59
2023/04/17 02:37:31;;;;;;;24.33;8.90;;;11.60;93.40;;;;;;5066958;28;20458;-59
2023/04/17 02:39:57;;;;;;;21.85;8.05;;;11.60;93.30;;;;;;5067041;28;20043;-59
2023/04/17 02:42:22;;;;;;;20.13;7.50;;;11.60;93.40;;;;;;5067113;28;20017;-59
2023/04/17 02:44:48;;;;;;;19.02;7.38;;;11.60;93.40;;;;;;5065780;28;20043;-59
2023/04/17 02:47:13;;;;;;;27.48;8.23;;;11.60;93.50;;;;;;5066708;28;20028;-59
2023/04/17 02:49:40;;;;;;;22.27;8.93;;;11.60;93.50;;;;;;5066749;28;20111;-59
2023/04/17 02:52:06;;;;;;;19.42;8.63;;;11.60;93.40;;;;;;5065234;28;20033;-59
2023/04/17 02:54:31;;;;;;;22.27;8.70;;;11.60;93.50;;;;;;5065341;28;20043;-59
2023/04/17 02:56:57;;;;;;;16.33;7.38;;;11.60;93.60;;;;;;5065347;28;20326;-58
2023/04/17 02:59:25;;;;;;;17.75;7.93;;;11.60;93.60;;;;;;5066615;28;20409;-59
2023/04/17 03:01:50;;;;;;;22.25;7.63;;;11.60;93.60;;;;;;5065151;28;20021;-59
2023/04/17 03:04:16;;;;;;;16.38;6.95;;;11.60;93.60;;;;;;5048635;28;20074;-59
2023/04/17 03:06:41;;;;;;;16.05;7.80;;;11.60;93.60;;;;;;5065251;28;20024;-59
2023/04/17 03:09:10;;;;;;;15.00;7.28;;;11.60;93.60;;;;;;5065022;28;20143;-59
2023/04/17 03:11:36;;;;;;;19.33;7.50;;;11.60;93.60;;;;;;5065150;28;20029;-59
2023/04/17 03:14:02;;;;;;;24.25;8.45;;;11.60;93.60;;;;;;5066309;28;20025;-59
2023/04/17 03:16:27;;;;;;;18.80;7.57;;;11.50;93.70;;;;;;5064842;28;20068;-59
2023/04/17 03:18:53;;;;;;;21.60;7.78;;;11.50;93.70;;;;;;5064806;28;20029;-59
2023/04/17 03:21:19;;;;;;;20.40;7.95;;;11.50;93.70;;;;;;5064984;28;20037;-59
2023/04/17 03:23:45;;;;;;;20.48;7.63;;;11.50;93.70;;;;;;5064756;28;20025;-59
2023/04/17 03:26:10;;;;;;;21.40;7.53;;;11.50;93.50;;;;;;5066326;28;20044;-59
2023/04/17 03:28:36;;;;;;;13.05;6.97;;;11.50;93.60;;;;;;5064611;28;20028;-58
2023/04/17 03:31:01;;;;;;;20.30;7.28;;;11.50;93.60;;;;;;5066029;28;20108;-59
2023/04/17 03:33:27;;;;;;;15.38;7.30;;;11.50;93.60;;;;;;5065972;28;20088;-59
2023/04/17 03:35:52;;;;;;;19.38;7.28;;;11.50;93.70;;;;;;5064381;28;20052;-59
2023/04/17 03:38:18;;;;;;;12.55;7.25;;;11.50;93.60;;;;;;5064556;28;20075;-58
2023/04/17 03:40:44;;;;;;;17.52;7.18;;;11.50;93.60;;;;;;5064713;28;20032;-59
2023/04/17 03:43:09;;;;;;;15.77;7.55;;;11.50;93.60;;;;;;5064391;28;20044;-59
2023/04/17 03:45:35;;;;;;;21.45;7.57;;;11.50;93.70;;;;;;5065844;28;20037;-59
2023/04/17 03:48:00;;;;;;;14.27;6.90;;;11.50;93.60;;;;;;5065738;28;20095;-59
2023/04/17 03:50:26;;;;;;;15.13;7.32;;;11.50;93.60;;;;;;5065482;28;20037;-59
2023/04/17 03:52:51;;;;;;;12.35;6.97;;;11.50;93.60;;;;;;5046894;28;20037;-59
2023/04/17 03:55:18;;;;;;;14.65;6.78;;;11.50;93.70;;;;;;5065471;28;20112;-59
2023/04/17 03:57:43;;;;;;;13.18;6.75;;;11.50;93.70;;;;;;5065659;28;20100;-59
2023/04/17 04:00:09;;;;;;;16.45;7.47;;;11.40;93.60;;;;;;5066428;28;20408;-59
2023/04/17 04:02:35;;;;;;;17.25;7.60;;;11.50;93.60;;;;;;5065167;28;20053;-58
2023/04/17 04:05:01;;;;;;;19.00;6.93;;;11.40;93.60;;;;;;5064237;28;20031;-58
2023/04/17 04:07:27;;;;;;;13.65;7.15;;;11.50;93.70;;;;;;5063860;28;20044;-59
2023/04/17 04:09:52;;;;;;;11.35;6.47;;;11.50;93.70;;;;;;5065246;28;20072;-59
2023/04/17 04:12:18;;;;;;;20.15;7.40;;;11.40;93.90;;;;;;5065279;28;20037;-59
2023/04/17 04:14:43;;;;;;;15.52;6.63;;;11.40;93.60;;;;;;5063744;28;20036;-59
2023/04/17 04:17:09;;;;;;;11.00;6.55;;;11.40;93.60;;;;;;5065096;28;20037;-59
2023/04/17 04:19:35;;;;;;;14.20;5.95;;;11.40;93.60;;;;;;5063743;28;20037;-59
2023/04/17 04:22:01;;;;;;;16.02;6.40;;;11.40;93.70;;;;;;5065012;28;20051;-59
2023/04/17 04:24:27;;;;;;;18.48;6.82;;;11.40;93.90;;;;;;5063785;28;20029;-59
2023/04/17 04:26:52;;;;;;;13.32;6.43;;;11.40;93.60;;;;;;5063510;28;20035;-59
2023/04/17 04:29:18;;;;;;;16.60;6.22;;;11.40;93.60;;;;;;5063637;28;20029;-59
2023/04/17 04:31:45;;;;;;;16.58;6.85;;;11.40;93.60;;;;;;5063467;28;20108;-59
2023/04/17 04:34:12;;;;;;;14.18;6.88;;;11.40;93.60;;;;;;5064653;28;20452;-59
2023/04/17 04:36:40;;;;;;;14.98;6.43;;;11.40;93.60;;;;;;5063320;28;20032;-59
2023/04/17 04:39:06;;;;;;;12.75;6.13;;;11.40;93.60;;;;;;5064915;28;20029;-58
2023/04/17 04:41:35;;;;;;;10.25;6.15;;;11.40;94.00;;;;;;5046781;28;20033;-59
2023/04/17 04:44:01;;;;;;;14.23;6.80;;;11.40;93.80;;;;;;5063283;28;20166;-55
2023/04/17 04:46:27;;;;;;;11.80;6.00;;;11.40;93.70;;;;;;5047038;28;20055;-55
2023/04/17 04:48:52;;;;;;;14.88;6.78;;;11.30;93.70;;;;;;5064602;28;20056;-55
2023/04/17 04:51:18;;;;;;;13.18;6.43;;;11.40;93.70;;;;;;5064607;28;20037;-55
2023/04/17 04:53:44;;;;;;;13.82;5.85;;;11.30;93.80;;;;;;5064800;28;20028;-55
2023/04/17 04:56:10;;;;;;;12.32;6.07;;;11.30;93.70;;;;;;5063277;28;20044;-55
2023/04/17 04:58:37;;;;;;;9.05;6.10;;;11.30;93.70;;;;;;5064716;28;20021;-55
2023/04/17 05:01:03;;;;;;;15.70;5.72;;;11.30;93.60;;;;;;5063197;28;20056;-55
2023/04/17 05:03:30;;;;;;;11.88;5.80;;;11.30;93.70;;;;;;5064279;28;20021;-55
2023/04/17 05:05:55;;;;;;;13.65;6.25;;;11.30;93.70;;;;;;5067483;28;20029;-55
2023/04/17 05:08:21;;;;;;;13.65;6.38;;;11.30;93.70;;;;;;5067230;28;20036;-55
2023/04/17 05:10:46;;;;;;;13.77;5.90;;;11.30;93.80;;;;;;5068564;28;20116;-55
2023/04/17 05:13:12;;;;;;;10.05;5.70;;;11.30;93.80;;;;;;5068520;28;20391;-55
2023/04/17 05:15:37;;;;;;;12.80;6.00;;;11.30;93.70;;;;;;5068512;28;20029;-55
2023/04/17 05:18:03;;;;;;;13.02;5.65;;;11.30;93.70;;;;;;5066905;28;20032;-55
2023/04/17 05:20:29;;;;;;;11.32;6.38;;;11.30;93.70;;;;;;5067156;28;20029;-55
2023/04/17 05:22:55;;;;;;;9.07;5.85;;;11.30;93.70;;;;;;5068556;28;20028;-55
2023/04/17 05:25:21;;;;;;;9.60;5.90;;;11.30;93.70;;;;;;5068410;28;20473;-59
2023/04/17 05:27:47;;;;;;;10.65;5.88;;;11.30;93.70;;;;;;5068483;28;20033;-58
2023/04/17 05:30:13;;;;;;;7.90;5.25;;;11.30;93.70;;;;;;5066952;28;20103;-59
2023/04/17 05:32:38;;;;;;;11.93;6.05;;;11.20;93.60;;;;;;5066668;28;20088;-58
2023/04/17 05:35:05;;;;;;;9.90;5.47;;;11.30;93.70;;;;;;5066807;28;20048;-58
2023/04/17 05:37:30;;;;;;;9.38;5.50;;;11.30;93.70;;;;;;5068065;28;20025;-59
2023/04/17 05:39:58;;;;;;;11.20;5.25;;;11.30;93.70;;;;;;5066596;28;20060;-59
2023/04/17 05:42:24;;;;;;;10.45;5.25;;;11.30;93.70;;;;;;5068068;28;20449;-59
2023/04/17 05:44:49;;;;;;;10.75;4.93;;;11.30;93.70;;;;;;5067731;28;20048;-59
2023/04/17 05:47:15;;;;;;;10.40;5.40;;;11.30;93.70;;;;;;5067892;28;20025;-59
2023/04/17 05:49:42;;;;;;;9.80;5.70;;;11.20;93.70;;;;;;5067952;28;20119;-59
2023/04/17 05:52:08;;;;;;;11.63;5.15;;;11.30;93.80;;;;;;5067666;28;20055;-59
2023/04/17 05:54:33;;;;;;;7.60;4.72;;;11.30;93.80;;;;;;5067599;28;20068;-59
2023/04/17 05:56:59;;;;;;;8.38;4.25;;;11.30;93.80;;;;;;5066302;28;20017;-59
2023/04/17 05:59:26;;;;;;;11.23;4.80;;;11.30;93.80;;;;;;5066495;28;20037;-59
2023/04/17 06:01:51;;;;;;;9.80;4.60;;;11.30;93.90;;;;;;5067799;28;20109;-58
2023/04/17 06:04:17;;;;;;;10.75;5.25;;;11.20;93.90;;;;;;5067568;28;20036;-59
2023/04/17 06:06:42;;;;;;;12.55;5.00;;;11.30;94.00;;;;;;5067656;28;20025;-59
2023/04/17 06:09:09;;;;;;;9.93;4.38;;;11.30;94.00;;;;;;5067114;28;20035;-60
2023/04/17 06:11:35;;;;;;;11.07;5.13;;;11.30;94.00;;;;;;5049460;28;20044;-59
2023/04/17 06:14:01;;;;;;;10.27;4.30;;;11.30;94.00;;;;;;5056817;28;20029;-59
2023/04/17 06:16:27;;;;;;;10.50;4.43;;;11.30;93.90;;;;;;5044036;28;20029;-59
2023/04/17 06:18:52;;;;;;;4.88;3.35;;;11.30;94.00;;;;;;5041972;28;20036;-59
2023/04/17 06:21:18;;;;;;;9.25;3.95;;;11.30;94.00;;;;;;5036899;28;20044;-59
2023/04/17 06:23:43;;;;;;;9.90;4.13;;;11.30;94.00;;;;;;5032642;28;20026;-59
2023/04/17 06:26:09;;;;;;;7.80;3.83;;;11.30;94.00;;;;;;5031692;28;20034;-59
2023/04/17 06:28:35;;;;;;;9.43;3.28;;;11.30;94.10;;;;;;5030113;28;20021;-59
2023/04/17 06:31:00;;;;;;;7.68;3.75;;;11.30;94.10;;;;;;5027596;28;20030;-59
2023/04/17 06:33:26;;;;;;;7.65;3.25;;;11.40;94.20;;;;;;5040444;28;20033;-59
2023/04/17 06:35:52;;;;;;;9.00;3.95;;;11.40;94.10;;;;;;5063974;28;20041;-59
2023/04/17 06:38:17;;;;;;;6.03;3.30;;;11.40;94.10;;;;;;5029702;28;21342;-59
2023/04/17 06:40:43;;;;;;;6.05;3.17;;;11.40;94.10;;;;;;5034683;28;20038;-59
2023/04/17 06:43:08;;;;;;;6.00;3.20;;;11.40;94.00;;;;;;5030034;28;20030;-59
2023/04/17 06:45:34;;;;;;;7.38;3.00;;;11.40;94.00;;;;;;5044367;28;20048;-59
2023/04/17 06:47:59;;;;;;;8.80;3.13;;;11.40;94.00;;;;;;5027981;28;20029;-59
2023/04/17 06:50:25;;;;;;;7.97;3.03;;;11.50;94.00;;;;;;5039894;28;20101;-59
2023/04/17 06:52:50;;;;;;;8.50;3.05;;;11.50;94.00;;;;;;5027034;28;20095;-59
2023/04/17 06:55:16;;;;;;;10.55;4.05;;;11.50;94.00;;;;;;5047731;28;20085;-59
2023/04/17 06:57:42;;;;;;;10.43;3.80;;;11.50;94.00;;;;;;5036825;28;20477;-59
2023/04/17 07:00:08;;;;;;;9.25;3.20;;;11.50;94.00;;;;;;5045903;28;20044;-59
2023/04/17 07:02:34;;;;;;;13.35;3.70;;;11.50;94.00;;;;;;5034786;28;20104;-59
2023/04/17 07:04:59;;;;;;;13.68;3.63;;;11.50;94.00;;;;;;5030448;28;20058;-59
2023/04/17 07:07:26;;;;;;;15.32;3.90;;;11.50;94.00;;;;;;5034570;28;20025;-59
2023/04/17 07:09:52;;;;;;;16.63;3.95;;;11.50;94.10;;;;;;5033775;28;20033;-59
2023/04/17 07:12:17;;;;;;;20.40;4.60;;;11.50;94.10;;;;;;5033057;28;20068;-59
2023/04/17 07:14:43;;;;;;;14.98;4.03;;;11.60;94.20;;;;;;5029655;28;20444;-59
2023/04/17 07:17:09;;;;;;;20.73;4.38;;;11.50;94.30;;;;;;5029875;28;20730;-59
2023/04/17 07:19:35;;;;;;;19.92;4.00;;;11.60;94.20;;;;;;5052738;28;20026;-59
2023/04/17 07:22:01;;;;;;;11.18;3.92;;;11.60;94.20;;;;;;5031922;28;20022;-59
2023/04/17 07:24:26;;;;;;;28.60;4.00;;;11.60;94.20;;;;;;5041427;28;20040;-59
2023/04/17 07:26:52;;;;;;;21.85;4.38;;;11.60;94.20;;;;;;5031622;28;20037;-59
2023/04/17 07:29:18;;;;;;;14.25;4.03;;;11.60;94.30;;;;;;5023910;28;20090;-59
2023/04/17 07:31:44;;;;;;;17.27;3.65;;;11.70;94.50;;;;;;5034486;28;20060;-59
2023/04/17 07:34:09;;;;;;;25.52;4.18;;;11.70;94.20;;;;;;5043175;28;20029;-59
2023/04/17 07:36:35;;;;;;;17.40;3.63;;;11.60;94.20;;;;;;5042427;28;20025;-59
2023/04/17 07:39:01;;;;;;;13.13;3.95;;;11.70;94.20;;;;;;5041639;28;20036;-59
2023/04/17 07:41:27;;;;;;;18.08;4.30;;;11.70;94.20;;;;;;5041619;28;20494;-59
2023/04/17 07:43:52;;;;;;;20.23;3.90;;;11.70;94.30;;;;;;5042020;28;20025;-59
2023/04/17 07:46:18;;;;;;;22.35;3.72;;;11.70;94.30;;;;;;5042960;28;20048;-59
2023/04/17 07:48:43;;;;;;;16.30;4.03;;;11.70;94.60;;;;;;5043995;28;20037;-59
2023/04/17 07:51:09;;;;;;;14.18;3.78;;;11.70;94.30;;;;;;5045177;28;20044;-59
2023/04/17 07:53:36;;;;;;;21.23;4.47;;;11.70;94.30;;;;;;5027287;28;20033;-59
2023/04/17 07:56:01;;;;;;;24.00;5.05;;;11.70;94.40;;;;;;5043852;28;20056;-59
2023/04/17 07:58:27;;;;;;;15.65;3.90;;;11.70;94.50;;;;;;5043465;28;20017;-59
2023/04/17 08:00:52;;;;;;;24.17;4.60;;;11.70;94.40;;;;;;5043904;28;20505;-59
2023/04/17 08:03:20;;;;;;;32.17;5.53;;;11.70;94.40;;;;;;5043302;28;20077;-59
2023/04/17 08:05:47;;;;;;;21.70;5.30;;;11.70;94.50;;;;;;5043928;28;20397;-59
2023/04/17 08:08:13;;;;;;;34.80;5.35;;;11.70;94.60;;;;;;5044984;28;20389;-59
2023/04/17 08:10:38;;;;;;;17.08;4.57;;;11.80;94.50;;;;;;5043678;28;20033;-59
2023/04/17 08:13:04;;;;;;;22.25;4.85;;;11.80;94.50;;;;;;5043366;28;20038;-58
2023/04/17 08:15:30;;;;;;;32.75;5.25;;;11.80;94.60;;;;;;5043414;28;20042;-59
2023/04/17 08:17:57;;;;;;;21.63;5.10;;;11.80;94.50;;;;;;5043454;28;20085;-59
2023/04/17 08:20:23;;;;;;;28.80;6.10;;;11.80;94.50;;;;;;5043280;28;20129;-59
2023/04/17 08:22:48;;;;;;;23.48;5.45;;;11.80;94.50;;;;;;5042853;28;20030;-59
2023/04/17 08:25:14;;;;;;;33.70;6.68;;;11.90;94.50;;;;;;5043065;28;20069;-59
2023/04/17 08:27:40;;;;;;;33.35;5.40;;;11.90;94.50;;;;;;5026433;28;20063;-59
2023/04/17 08:30:07;;;;;;;43.42;6.00;;;12.00;94.60;;;;;;5043017;28;20070;-59
2023/04/17 08:32:40;;;;;;;30.38;5.10;;;12.00;94.50;;;;;;5026510;28;20036;-59
2023/04/17 08:35:07;;;;;;;27.58;5.80;;;12.00;94.40;;;;;;5044390;28;20080;-60
2023/04/17 08:37:34;;;;;;;34.13;5.40;;;12.00;94.40;;;;;;5042731;28;20022;-59
2023/04/17 08:40:00;;;;;;;31.27;5.60;;;12.10;94.40;;;;;;5043004;28;20040;-59
2023/04/17 08:42:26;;;;;;;36.60;5.90;;;12.10;94.40;;;;;;5043124;28;20037;-59
2023/04/17 08:44:52;;;;;;;46.53;5.90;;;12.10;94.40;;;;;;5042876;28;20025;-59
2023/04/17 08:47:17;;;;;;;58.88;6.97;;;12.10;94.40;;;;;;5042859;28;20045;-59
2023/04/17 08:49:44;;;;;;;55.75;7.07;;;12.10;94.80;;;;;;5043827;28;20113;-59
2023/04/17 08:52:10;;;;;;;61.88;8.02;;;12.20;94.60;;;;;;5042958;28;20045;-59
2023/04/17 08:54:37;;;;;;;53.75;7.95;;;12.20;94.70;;;;;;5042883;28;20072;-59
2023/04/17 08:57:03;;;;;;;45.28;7.28;;;12.20;94.70;;;;;;5042641;28;20034;-58
2023/04/17 08:59:29;;;;;;;37.17;6.53;;;12.30;94.70;;;;;;5042276;28;20041;-59
2023/04/17 09:02:02;;;;;;;50.90;6.38;;;12.30;94.70;;;;;;5026051;28;20045;-59
2023/04/17 09:04:42;;;;;;;63.00;8.48;;;12.40;94.60;;;;;;5024463;28;20064;-59
2023/04/17 09:07:09;;;;;;;50.58;6.25;;;12.40;94.50;;;;;;5041253;28;20037;-59
2023/04/17 09:10:07;;;;;;;151.60;16.48;;;12.40;94.50;;;;;;5042566;28;20488;-59
2023/04/17 09:12:40;;;;;;;46.90;8.23;;;12.60;94.50;;;;;;5031974;28;20128;-59
2023/04/17 09:15:15;;;;;;;89.65;9.27;;;12.60;94.40;;;;;;5042772;28;20045;-59
2023/04/17 09:17:41;;;;;;;70.93;10.00;;;12.60;94.30;;;;;;5037631;28;20539;-59
2023/04/17 09:20:08;;;;;;;92.47;11.38;;;12.60;94.50;;;;;;5024846;28;20041;-59
2023/04/17 09:22:35;;;;;;;83.57;11.30;;;12.70;94.60;;;;;;5039630;28;20052;-59
2023/04/17 09:25:01;;;;;;;81.47;11.35;;;12.70;94.50;;;;;;5041627;28;20060;-59
2023/04/17 09:27:26;;;;;;;104.45;12.35;;;12.80;94.60;;;;;;5041441;28;20029;-59
2023/04/17 09:30:03;;;;;;;106.45;12.75;;;12.80;94.50;;;;;;5042333;28;20363;-59
2023/04/17 09:32:30;;;;;;;92.95;10.38;;;12.80;94.40;;;;;;5043687;28;20078;-59
2023/04/17 09:34:57;;;;;;;77.93;11.10;;;12.80;94.30;;;;;;5042290;28;20025;-59
2023/04/17 09:37:23;;;;;;;102.60;12.73;;;12.90;94.20;;;;;;5042379;28;20026;-59
2023/04/17 09:39:58;;;;;;;76.82;10.27;;;12.90;94.30;;;;;;5042457;28;20465;-59
2023/04/17 09:42:25;;;;;;;78.32;9.95;;;13.00;94.30;;;;;;5042637;28;20379;-58
2023/04/17 09:44:51;;;;;;;111.15;13.65;;;13.10;94.00;;;;;;5042321;28;20026;-59
2023/04/17 09:47:17;;;;;;;134.82;14.02;;;13.10;94.10;;;;;;5042391;28;20029;-59
2023/04/17 09:49:51;;;;;;;134.50;17.10;;;13.10;94.20;;;;;;5043445;28;20029;-59
2023/04/17 09:52:22;;;;;;;137.02;17.25;;;13.10;94.60;;;;;;5046198;28;20033;-58
2023/04/17 09:54:50;;;;;;;75.35;11.90;;;13.20;94.20;;;;;;5047704;28;20041;-59
2023/04/17 09:57:15;;;;;;;80.47;11.25;;;13.30;94.10;;;;;;5046006;28;20030;-59
2023/04/17 09:59:44;;;;;;;99.90;12.13;;;13.20;93.70;;;;;;5045879;28;20143;-59
2023/04/17 10:02:11;;;;;;;82.90;11.98;;;13.30;93.70;;;;;;5045800;28;20053;-59
2023/04/17 10:04:40;;;;;;;77.93;12.57;;;13.30;94.00;;;;;;5045693;28;20474;-59
2023/04/17 10:07:06;;;;;;;127.10;15.63;;;13.30;94.00;;;;;;5046142;28;20033;-58
2023/04/17 10:09:32;;;;;;;116.93;15.90;;;13.60;93.80;;;;;;5046016;28;20143;-59
2023/04/17 10:11:57;;;;;;;123.22;15.05;;;13.40;93.70;;;;;;5045767;28;20029;-59
2023/04/17 10:14:30;;;;;;;140.73;16.20;;;13.40;93.80;;;;;;5047490;28;20040;-59
2023/04/17 10:16:55;;;;;;;115.60;14.50;;;13.50;93.80;;;;;;5029180;28;20030;-59
2023/04/17 10:19:31;;;;;;;93.63;12.02;;;13.50;93.80;;;;;;5029487;28;20397;-58
2023/04/17 10:22:18;;;;;;;138.82;15.02;;;13.50;93.70;;;;;;5045681;28;20065;-59
2023/04/17 10:24:47;;;;;;;122.15;15.27;;;13.50;93.60;;;;;;5045278;28;20056;-59
2023/04/17 10:27:41;;;;;;;123.75;15.85;;;13.50;93.60;;;;;;5046582;28;20026;-59
2023/04/17 10:30:13;;;;;;;146.75;18.27;;;13.60;93.60;;;;;;5046934;28;20042;-59
2023/04/17 10:33:00;;;;;;;112.15;15.65;;;13.70;93.50;;;;;;5029210;28;20025;-59
2023/04/17 10:35:26;;;;;;;81.47;13.63;;;13.70;93.40;;;;;;5041597;28;20038;-59
2023/04/17 10:38:02;;;;;;;155.77;17.02;;;13.70;93.20;;;;;;5046230;28;20041;-57
2023/04/17 10:40:34;;;;;;;110.82;14.50;;;13.70;93.20;;;;;;5044295;28;20026;-59
2023/04/17 10:43:22;;;;;;;137.48;16.02;;;13.70;93.10;;;;;;5056693;28;20032;-59
2023/04/17 10:45:54;;;;;;;106.00;15.23;;;13.80;93.00;;;;;;5060979;28;20025;-58
2023/04/17 10:48:23;;;;;;;86.32;10.70;;;13.80;93.00;;;;;;5066149;28;20044;-59
2023/04/17 10:50:48;;;;;;;89.15;12.88;;;13.80;92.70;;;;;;5057042;28;20030;-59
2023/04/17 10:53:40;;;;;;;97.22;12.70;;;13.80;92.50;;;;;;5059575;28;20445;-59
2023/04/17 10:56:06;;;;;;;105.38;12.98;;;13.80;92.40;;;;;;5062821;28;20033;-59
2023/04/17 10:58:32;;;;;;;111.35;14.02;;;13.90;92.40;;;;;;5062520;28;20048;-59
2023/04/17 11:01:01;;;;;;;164.98;17.80;;;13.90;92.70;;;;;;5080166;28;20022;-59
2023/04/17 11:03:27;;;;;;;136.95;16.80;;;13.90;92.40;;;;;;5055634;28;20037;-59
2023/04/17 11:05:52;;;;;;;121.18;15.98;;;13.90;92.40;;;;;;5049510;28;20046;-59
2023/04/17 11:08:19;;;;;;;119.30;13.77;;;14.00;92.30;;;;;;5024586;28;20112;-59
2023/04/17 11:10:44;;;;;;;118.07;16.60;;;14.00;92.20;;;;;;5050597;28;20037;-58
2023/04/17 11:13:10;;;;;;;143.77;17.38;;;14.00;92.00;;;;;;5044090;28;20109;-59
2023/04/17 11:15:35;;;;;;;153.13;17.38;;;14.10;92.10;;;;;;5050838;28;20033;-58
2023/04/17 11:18:01;;;;;;;143.32;16.30;;;14.10;91.80;;;;;;5061255;28;20485;-59
2023/04/17 11:20:31;;;;;;;126.55;14.23;;;14.20;91.70;;;;;;5045911;28;20057;-59
2023/04/17 11:23:03;;;;;;;130.15;16.10;;;14.20;91.60;;;;;;5045785;28;20081;-59
2023/04/17 11:25:30;;;;;;;114.53;14.85;;;14.20;91.50;;;;;;5049104;28;20108;-59
2023/04/17 11:28:05;;;;;;;121.28;15.02;;;14.30;91.40;;;;;;5059724;28;20327;-59
2023/04/17 11:30:31;;;;;;;108.20;14.73;;;14.30;91.50;;;;;;5047635;28;20128;-59
2023/04/17 11:33:03;;;;;;;161.48;16.38;;;14.40;91.10;;;;;;5059097;28;20034;-59
2023/04/17 11:35:34;;;;;;;117.18;16.13;;;14.40;91.10;;;;;;5042076;28;20025;-59
2023/04/17 11:38:03;;;;;;;120.03;16.25;;;14.50;91.10;;;;;;5024620;28;20022;-59
2023/04/17 11:40:29;;;;;;;134.50;17.13;;;14.50;91.00;;;;;;5011411;28;20456;-59
2023/04/17 11:42:55;;;;;;;119.90;15.30;;;14.50;90.90;;;;;;5042509;28;20037;-59
2023/04/17 11:45:20;;;;;;;112.47;13.75;;;14.50;90.80;;;;;;5044794;28;20037;-59
2023/04/17 11:47:46;;;;;;;104.30;13.13;;;14.50;90.80;;;;;;5043772;28;20060;-59
2023/04/17 11:50:14;;;;;;;109.78;12.15;;;14.60;90.70;;;;;;5044634;28;20093;-59
2023/04/17 11:52:40;;;;;;;97.90;12.23;;;14.60;90.50;;;;;;5043508;28;20148;-59
2023/04/17 11:55:07;;;;;;;110.85;14.13;;;14.70;90.30;;;;;;5042140;28;20061;-59
2023/04/17 11:57:42;;;;;;;109.68;13.80;;;14.80;90.20;;;;;;5045039;28;20120;-58
2023/04/17 12:00:14;;;;;;;122.13;14.23;;;14.90;90.10;;;;;;5023495;28;20033;-58
2023/04/17 12:02:41;;;;;;;94.68;14.52;;;15.00;89.90;;;;;;5024828;28;20074;-59
2023/04/17 12:05:13;;;;;;;125.55;16.00;;;15.00;89.50;;;;;;5042516;28;20034;-59
2023/04/17 12:07:39;;;;;;;193.38;20.52;;;15.10;89.30;;;;;;5043168;28;20038;-59
2023/04/17 12:10:06;;;;;;;153.43;17.90;;;15.20;88.70;;;;;;5043318;28;20051;-59
2023/04/17 12:12:32;;;;;;;155.77;18.35;;;15.30;88.40;;;;;;5043019;28;20037;-58
2023/04/17 12:15:01;;;;;;;143.82;17.30;;;15.30;88.00;;;;;;5045023;28;20036;-58
2023/04/17 12:17:27;;;;;;;137.27;16.33;;;15.40;87.60;;;;;;5042139;28;20041;-58
2023/04/17 12:19:52;;;;;;;131.85;15.45;;;15.40;87.20;;;;;;5043280;28;20075;-59
2023/04/17 12:22:18;;;;;;;135.05;16.42;;;15.50;87.10;;;;;;5027533;28;20041;-59
2023/04/17 12:24:44;;;;;;;147.85;17.13;;;15.50;87.10;;;;;;5048481;28;20120;-59
2023/04/17 12:27:09;;;;;;;93.47;13.82;;;15.60;86.90;;;;;;5049797;28;20158;-59
2023/04/17 12:29:35;;;;;;;113.68;13.70;;;15.60;86.50;;;;;;5042369;28;20050;-58
2023/04/17 12:32:00;;;;;;;139.27;15.65;;;15.70;86.50;;;;;;5042406;28;20082;-59